Curtis Bay, Maryland
Current Conditions -  °F | °C
As of 8:54 AM on Friday 31 Oct 2014 (Local Time) from KBWI Reporting Station
Broken Clouds Broken Clouds  
Wind Chill: 45°   Ceiling: 5500
Heat Index: 49°   Visibility: 10mi
Dew Point: 38°   Wind: 8mph
Humidity: 66%   Direction: 70°ENE
Pressure: 30"   Gusts: NA
Location:  39.23°N, 76.59°W
Report Text: KBWI 311254Z 07007KT 10SM BKN055 09/03 A3000 RMK AO2 SLP158 T00940033
Loading
Personal Weather Stations






























Interactive Weather Map
Tropical Storm Tracking
New forecast layout! Learn more

10-Day Weather Forecast

Advertisements
Track Severe Weather on mobile